Time;durP1;ratioP1;P1;durP2;ratioP2;P2;SDS_P1;SDS_P2;PMS_P1;PMS_P2;Temp;Humidity;BMP_temperature;BMP_pressure;BME280_temperature;BME280_humidity;BME280_pressure;Samples;Min_cycle;Max_cycle;Signal;HPM_P1;HPM_P2
2022/12/23 00:01:22;;;;;;;3.40;1.60;;;13.10;99.90;;;;;;931223;151;28376;-76
2022/12/23 00:03:48;;;;;;;1.87;1.67;;;13.10;99.90;;;;;;930336;151;27709;-76
2022/12/23 00:06:15;;;;;;;1.77;1.67;;;13.10;99.90;;;;;;929669;151;27316;-76
2022/12/23 00:08:42;;;;;;;3.02;1.62;;;13.10;99.90;;;;;;930359;151;27525;-76
2022/12/23 00:11:11;;;;;;;2.67;1.45;;;13.10;99.90;;;;;;928867;151;27416;-76
2022/12/23 00:16:22;;;;;;;3.30;1.50;;;13.10;99.90;;;;;;931675;151;27395;-76
2022/12/23 00:18:49;;;;;;;1.87;1.47;;;13.10;99.90;;;;;;930962;151;27938;-76
2022/12/23 00:21:15;;;;;;;2.47;1.70;;;13.20;99.90;;;;;;930284;151;27831;-76
2022/12/23 00:23:42;;;;;;;4.53;1.47;;;13.20;99.90;;;;;;930954;151;27333;-76
2022/12/23 00:26:15;;;;;;;3.93;1.73;;;13.20;99.90;;;;;;928556;151;27391;-76
2022/12/23 00:28:41;;;;;;;2.22;1.52;;;13.20;99.90;;;;;;928062;151;27389;-76
2022/12/23 00:31:08;;;;;;;1.87;1.30;;;13.20;99.90;;;;;;930148;151;27288;-76
2022/12/23 00:33:37;;;;;;;1.72;1.50;;;13.20;99.90;;;;;;929196;151;27422;-76
2022/12/23 00:36:26;;;;;;;2.40;1.90;;;13.30;99.90;;;;;;928302;151;27439;-76
2022/12/23 00:44:21;;;;;;;1.93;1.60;;;13.30;99.90;;;;;;929125;151;27351;-76
2022/12/23 00:46:47;;;;;;;4.03;1.80;;;13.30;99.90;;;;;;929108;151;27447;-76
2022/12/23 00:51:59;;;;;;;4.00;3.58;;;13.30;99.90;;;;;;928467;151;27399;-77
2022/12/23 00:54:25;;;;;;;7.80;5.83;;;13.30;99.90;;;;;;929483;151;27379;-76
2022/12/23 00:56:52;;;;;;;3.52;2.33;;;13.40;99.90;;;;;;928247;151;27460;-76
2022/12/23 00:59:18;;;;;;;4.27;3.13;;;13.40;99.90;;;;;;929296;151;27288;-76
2022/12/23 01:07:15;;;;;;;2.80;1.82;;;13.40;99.90;;;;;;930603;151;27486;-77
2022/12/23 01:09:41;;;;;;;2.85;1.90;;;13.40;99.90;;;;;;928340;151;27430;-76
2022/12/23 01:12:08;;;;;;;4.40;1.80;;;13.30;99.90;;;;;;929622;151;27391;-76
2022/12/23 01:14:34;;;;;;;7.58;5.22;;;13.40;99.90;;;;;;929397;151;27447;-76
2022/12/23 01:17:01;;;;;;;5.78;4.30;;;13.40;99.90;;;;;;929035;150;27397;-76
2022/12/23 01:19:28;;;;;;;5.50;4.20;;;13.40;99.90;;;;;;929583;151;27262;-76
2022/12/23 01:21:54;;;;;;;3.47;2.95;;;13.30;99.90;;;;;;928699;151;27375;-76
2022/12/23 01:24:21;;;;;;;5.10;2.65;;;13.40;99.90;;;;;;929924;151;27391;-76
2022/12/23 01:26:47;;;;;;;2.77;2.33;;;13.40;99.90;;;;;;929553;151;27322;-76
2022/12/23 01:29:14;;;;;;;3.30;2.20;;;13.40;99.90;;;;;;929509;151;27376;-76
2022/12/23 01:31:40;;;;;;;3.85;2.62;;;13.40;99.90;;;;;;930322;151;27318;-76
2022/12/23 01:34:07;;;;;;;2.50;2.30;;;13.40;99.90;;;;;;930263;151;27386;-77
2022/12/23 01:36:34;;;;;;;3.65;2.60;;;13.40;99.90;;;;;;928899;151;27390;-76
2022/12/23 01:39:00;;;;;;;2.87;2.52;;;13.40;99.90;;;;;;929774;151;27926;-76
2022/12/23 01:44:49;;;;;;;2.83;2.52;;;13.40;99.90;;;;;;929870;151;27458;-77
2022/12/23 01:47:24;;;;;;;3.50;2.80;;;13.40;99.90;;;;;;929287;151;27325;-77
2022/12/23 01:49:51;;;;;;;3.77;2.77;;;13.40;99.90;;;;;;929989;151;27820;-77
2022/12/23 01:52:17;;;;;;;2.83;2.62;;;13.30;99.90;;;;;;928636;151;28239;-76
2022/12/23 01:54:44;;;;;;;4.05;2.72;;;13.30;99.90;;;;;;930271;151;27442;-76
2022/12/23 01:57:11;;;;;;;5.22;3.62;;;13.30;99.90;;;;;;927973;151;27862;-77
2022/12/23 02:05:06;;;;;;;7.70;4.45;;;13.30;99.90;;;;;;929898;151;27417;-76
2022/12/23 02:10:18;;;;;;;5.37;4.00;;;13.30;99.90;;;;;;928583;151;27471;-76
2022/12/23 02:12:53;;;;;;;4.20;3.53;;;13.30;99.90;;;;;;929354;151;28051;-76
2022/12/23 02:18:29;;;;;;;4.78;3.00;;;13.30;99.90;;;;;;924550;150;27332;-76
2022/12/23 02:21:04;;;;;;;3.25;2.95;;;13.30;99.90;;;;;;928917;151;27395;-76
2022/12/23 02:23:42;;;;;;;3.52;2.77;;;13.20;99.90;;;;;;928526;151;27432;-76
2022/12/23 02:26:40;;;;;;;3.40;2.70;;;13.30;99.90;;;;;;928980;150;27348;-76
2022/12/23 02:29:34;;;;;;;3.98;3.60;;;13.30;99.90;;;;;;930083;151;27474;-77
2022/12/23 02:32:09;;;;;;;6.05;4.10;;;13.20;99.90;;;;;;931584;151;27408;-76
2022/12/23 02:34:44;;;;;;;3.90;3.60;;;13.20;99.90;;;;;;931345;151;27331;-77
2022/12/23 02:37:14;;;;;;;5.20;3.72;;;13.20;99.90;;;;;;931539;151;27472;-77
2022/12/23 02:39:58;;;;;;;4.07;3.10;;;13.30;99.90;;;;;;931902;151;27367;-76
2022/12/23 02:42:37;;;;;;;3.55;2.90;;;13.20;99.90;;;;;;931899;151;27358;-77
2022/12/23 02:45:09;;;;;;;2.90;2.55;;;13.20;99.90;;;;;;931724;151;27358;-77
2022/12/23 02:47:36;;;;;;;2.75;2.47;;;13.30;99.90;;;;;;932139;151;27386;-76
2022/12/23 02:50:05;;;;;;;2.40;2.20;;;13.30;99.90;;;;;;932135;151;27454;-76
2022/12/23 02:52:32;;;;;;;3.58;2.98;;;13.30;99.90;;;;;;932419;151;27300;-77
2022/12/23 02:54:58;;;;;;;3.17;2.85;;;13.30;99.90;;;;;;932613;151;27360;-76
2022/12/23 02:57:25;;;;;;;3.77;3.42;;;13.30;99.90;;;;;;930566;151;27339;-77
2022/12/23 02:59:51;;;;;;;3.12;2.92;;;13.30;99.90;;;;;;932530;151;27394;-77
2022/12/23 03:02:18;;;;;;;3.12;2.87;;;13.40;99.90;;;;;;932962;151;28637;-77
2022/12/23 03:04:45;;;;;;;2.60;2.40;;;13.30;99.90;;;;;;932867;151;27320;-77
2022/12/23 03:07:17;;;;;;;2.90;2.40;;;13.30;99.90;;;;;;932605;151;27407;-77
2022/12/23 03:10:08;;;;;;;2.60;2.40;;;13.40;99.90;;;;;;932402;151;27360;-77
2022/12/23 03:12:44;;;;;;;1.52;1.42;;;13.40;99.90;;;;;;932571;151;27480;-77
2022/12/23 03:15:22;;;;;;;1.75;1.65;;;13.30;99.90;;;;;;932400;151;27470;-76
2022/12/23 03:17:49;;;;;;;1.50;1.40;;;13.30;99.90;;;;;;932046;151;27824;-76
2022/12/23 03:20:25;;;;;;;1.40;1.30;;;13.30;99.90;;;;;;931358;151;27417;-76
2022/12/23 03:23:00;;;;;;;1.57;1.30;;;13.20;99.90;;;;;;931610;151;27775;-76
2022/12/23 03:25:26;;;;;;;1.30;1.20;;;13.20;99.90;;;;;;921886;151;27397;-77
2022/12/23 03:28:08;;;;;;;1.45;1.35;;;13.20;99.90;;;;;;932703;151;27377;-76
2022/12/23 03:30:34;;;;;;;1.62;1.30;;;13.20;99.90;;;;;;910643;151;27368;-76
2022/12/23 03:33:04;;;;;;;1.20;1.20;;;13.20;99.90;;;;;;928745;151;27294;-76
2022/12/23 03:35:30;;;;;;;1.93;1.13;;;13.10;99.90;;;;;;928133;151;27376;-76
2022/12/23 03:37:57;;;;;;;1.20;1.20;;;13.10;99.90;;;;;;908240;155;27466;-76
2022/12/23 03:40:26;;;;;;;1.02;1.02;;;13.10;99.90;;;;;;928730;151;27463;-76
2022/12/23 03:42:53;;;;;;;1.75;1.00;;;13.10;99.90;;;;;;929119;151;27295;-76
2022/12/23 03:45:28;;;;;;;1.07;1.07;;;13.10;99.90;;;;;;928261;151;27409;-76
2022/12/23 03:47:55;;;;;;;1.15;1.15;;;13.10;99.90;;;;;;910451;156;27384;-77
2022/12/23 03:50:21;;;;;;;1.10;1.10;;;13.00;99.90;;;;;;927669;151;27784;-76
2022/12/23 03:52:56;;;;;;;1.20;1.10;;;13.00;99.90;;;;;;928894;151;27316;-76
2022/12/23 03:55:23;;;;;;;0.60;0.60;;;13.00;99.90;;;;;;927752;151;27300;-77
2022/12/23 03:57:58;;;;;;;0.50;0.50;;;13.00;99.90;;;;;;926011;151;27304;-77
2022/12/23 04:00:25;;;;;;;0.78;0.70;;;13.00;99.90;;;;;;927597;151;27482;-76
2022/12/23 04:02:54;;;;;;;0.37;0.37;;;12.90;99.90;;;;;;928753;151;27325;-77
2022/12/23 04:05:27;;;;;;;0.50;0.35;;;12.90;99.90;;;;;;928744;151;27373;-77
2022/12/23 04:08:11;;;;;;;0.43;0.30;;;12.90;99.90;;;;;;913575;154;27408;-77
2022/12/23 04:10:38;;;;;;;0.30;0.30;;;12.90;99.90;;;;;;928932;151;27459;-77
2022/12/23 04:13:05;;;;;;;0.28;0.28;;;12.90;99.90;;;;;;912986;154;27368;-77
2022/12/23 04:15:31;;;;;;;0.33;0.33;;;12.80;99.90;;;;;;928813;151;27717;-76
2022/12/23 04:17:58;;;;;;;0.47;0.47;;;12.80;99.90;;;;;;914120;154;27329;-77
2022/12/23 04:20:24;;;;;;;0.50;0.50;;;12.80;99.90;;;;;;928985;151;27275;-77
2022/12/23 04:22:51;;;;;;;0.60;0.60;;;12.80;99.90;;;;;;928620;151;27371;-77
2022/12/23 04:25:18;;;;;;;0.43;0.43;;;12.70;99.90;;;;;;922773;152;27377;-76
2022/12/23 04:27:44;;;;;;;0.20;0.20;;;12.70;99.90;;;;;;912491;154;27347;-77
2022/12/23 04:30:11;;;;;;;0.50;0.50;;;12.70;99.90;;;;;;928850;151;27425;-77
2022/12/23 04:32:37;;;;;;;0.33;0.33;;;12.70;99.90;;;;;;913560;153;27332;-77
2022/12/23 04:35:04;;;;;;;0.30;0.30;;;12.70;99.90;;;;;;928512;150;27413;-77
2022/12/23 04:37:30;;;;;;;0.50;0.50;;;12.70;99.90;;;;;;929644;150;27353;-76
2022/12/23 04:39:57;;;;;;;0.80;0.80;;;12.70;99.90;;;;;;927798;150;27461;-77
2022/12/23 04:42:24;;;;;;;2.30;1.00;;;12.70;99.90;;;;;;930708;151;27455;-77
2022/12/23 04:44:50;;;;;;;0.80;0.80;;;12.60;99.90;;;;;;930611;151;27308;-77
2022/12/23 04:47:17;;;;;;;1.23;1.10;;;12.50;99.90;;;;;;930255;151;27291;-76
2022/12/23 04:49:43;;;;;;;0.80;0.80;;;12.50;99.90;;;;;;930855;151;27395;-77
2022/12/23 04:52:10;;;;;;;1.00;1.00;;;12.40;99.90;;;;;;930315;151;27387;-77
2022/12/23 04:54:37;;;;;;;0.90;0.90;;;12.30;99.90;;;;;;929910;151;27456;-76
2022/12/23 04:57:03;;;;;;;1.10;1.10;;;12.30;99.90;;;;;;930574;151;27320;-76
2022/12/23 04:59:30;;;;;;;1.00;1.00;;;12.20;99.90;;;;;;930268;151;27417;-77
2022/12/23 05:01:56;;;;;;;1.07;1.07;;;12.10;99.90;;;;;;930021;151;27410;-77
2022/12/23 05:04:23;;;;;;;0.97;0.80;;;12.10;99.90;;;;;;929434;151;27413;-76
2022/12/23 05:06:50;;;;;;;1.53;1.00;;;11.90;99.90;;;;;;928926;151;27328;-76
2022/12/23 05:09:16;;;;;;;1.27;1.10;;;11.90;99.90;;;;;;930179;151;27470;-76
2022/12/23 05:11:43;;;;;;;0.80;0.80;;;11.80;99.90;;;;;;930007;151;27431;-77
2022/12/23 05:14:09;;;;;;;0.97;0.87;;;11.70;99.90;;;;;;930365;151;27438;-77
2022/12/23 05:16:36;;;;;;;1.20;1.10;;;11.60;99.90;;;;;;930622;151;27407;-77
2022/12/23 05:19:02;;;;;;;3.17;1.10;;;11.60;99.90;;;;;;930625;151;27407;-76
2022/12/23 05:21:29;;;;;;;1.30;1.20;;;11.60;99.90;;;;;;929262;151;27388;-77
2022/12/23 05:23:56;;;;;;;1.30;1.20;;;11.50;99.90;;;;;;930073;151;27397;-76
2022/12/23 05:26:22;;;;;;;1.57;1.47;;;11.50;99.90;;;;;;930694;151;27340;-77
2022/12/23 05:28:49;;;;;;;1.53;1.43;;;11.40;99.90;;;;;;929995;151;27471;-77
2022/12/23 05:31:16;;;;;;;1.67;1.57;;;11.40;99.90;;;;;;928718;151;27511;-76
2022/12/23 05:33:42;;;;;;;1.50;1.40;;;11.40;99.90;;;;;;923742;152;27307;-76
2022/12/23 05:36:09;;;;;;;2.00;1.77;;;11.40;99.90;;;;;;913910;154;27988;-76
2022/12/23 05:38:35;;;;;;;1.53;1.47;;;11.40;99.90;;;;;;931807;151;27468;-76
2022/12/23 05:41:02;;;;;;;1.33;1.33;;;11.50;99.90;;;;;;931519;151;27380;-75
2022/12/23 05:43:28;;;;;;;1.33;1.23;;;11.50;99.90;;;;;;930712;151;27468;-74
2022/12/23 05:45:55;;;;;;;1.20;1.10;;;11.50;99.90;;;;;;913561;154;27339;-76
2022/12/23 05:48:21;;;;;;;1.20;1.07;;;11.50;99.90;;;;;;930734;151;27447;-77
2022/12/23 05:50:48;;;;;;;1.10;1.00;;;11.50;99.90;;;;;;930251;151;27408;-77
2022/12/23 05:53:15;;;;;;;1.30;1.20;;;11.60;99.90;;;;;;929442;151;27406;-77
2022/12/23 05:55:41;;;;;;;1.63;1.53;;;11.60;99.90;;;;;;930553;151;27476;-76
2022/12/23 05:58:08;;;;;;;1.00;1.00;;;11.70;99.90;;;;;;912951;154;27468;-76
2022/12/23 06:00:34;;;;;;;1.07;1.07;;;11.70;99.90;;;;;;929503;151;27327;-77
2022/12/23 06:03:01;;;;;;;1.07;0.90;;;11.70;99.90;;;;;;929083;151;27353;-77
2022/12/23 06:05:28;;;;;;;1.10;1.03;;;11.80;99.90;;;;;;929934;151;27394;-77
2022/12/23 06:07:54;;;;;;;1.80;1.10;;;11.80;99.90;;;;;;929719;151;27389;-77
2022/12/23 06:10:21;;;;;;;1.33;1.23;;;11.80;99.90;;;;;;929031;151;27398;-77
2022/12/23 06:12:47;;;;;;;1.23;1.13;;;11.90;99.90;;;;;;928990;151;27303;-76
2022/12/23 06:15:14;;;;;;;1.20;1.10;;;11.90;99.90;;;;;;928841;151;27466;-76
2022/12/23 06:17:41;;;;;;;1.63;1.40;;;11.90;99.90;;;;;;929758;151;27355;-77
2022/12/23 06:20:07;;;;;;;1.93;1.60;;;11.90;99.90;;;;;;929638;151;27272;-77
2022/12/23 06:22:34;;;;;;;2.43;1.57;;;11.90;99.90;;;;;;928591;151;27494;-76
2022/12/23 06:25:00;;;;;;;2.20;1.37;;;11.90;99.90;;;;;;928723;151;27374;-76
2022/12/23 06:27:27;;;;;;;1.40;1.30;;;11.90;99.90;;;;;;928748;151;27274;-76
2022/12/23 06:29:54;;;;;;;1.20;1.10;;;12.00;99.90;;;;;;929326;151;27404;-76
2022/12/23 06:32:20;;;;;;;2.60;2.40;;;12.00;99.90;;;;;;929993;151;27338;-77
2022/12/23 06:34:49;;;;;;;1.23;1.10;;;12.00;99.90;;;;;;924792;152;27375;-77
2022/12/23 06:37:13;;;;;;;1.73;1.63;;;12.00;99.90;;;;;;915332;153;27387;-77
2022/12/23 06:39:40;;;;;;;1.73;1.40;;;12.00;99.90;;;;;;933304;151;28564;-76
2022/12/23 06:42:06;;;;;;;0.90;0.90;;;11.90;99.90;;;;;;932032;151;27412;-77
2022/12/23 06:44:33;;;;;;;1.50;1.00;;;11.90;99.90;;;;;;932528;151;27319;-77
2022/12/23 06:47:00;;;;;;;3.40;1.90;;;11.80;99.90;;;;;;932371;151;27283;-77
2022/12/23 06:49:26;;;;;;;2.00;1.80;;;11.70;99.90;;;;;;931975;151;27837;-76
2022/12/23 06:51:53;;;;;;;2.43;1.90;;;11.60;99.90;;;;;;932225;151;27312;-77
2022/12/23 06:54:19;;;;;;;2.00;1.37;;;11.60;99.90;;;;;;931796;151;27372;-77
2022/12/23 06:56:46;;;;;;;1.43;1.27;;;11.50;99.90;;;;;;917345;154;27404;-76
2022/12/23 06:59:13;;;;;;;1.20;1.10;;;11.50;99.90;;;;;;934074;151;27293;-77
2022/12/23 07:01:39;;;;;;;1.87;1.30;;;11.50;99.90;;;;;;932825;151;27406;-77
2022/12/23 07:04:06;;;;;;;1.93;1.50;;;11.50;99.90;;;;;;911769;154;27826;-76
2022/12/23 07:06:32;;;;;;;2.40;2.20;;;11.50;99.90;;;;;;931539;151;27389;-76
2022/12/23 07:08:59;;;;;;;1.60;1.50;;;11.60;99.90;;;;;;931688;151;28015;-76
2022/12/23 07:11:26;;;;;;;1.10;1.00;;;11.60;99.90;;;;;;932985;151;27325;-76
2022/12/23 07:13:52;;;;;;;1.07;1.07;;;11.60;99.90;;;;;;932520;151;27326;-78
2022/12/23 07:16:19;;;;;;;1.57;1.00;;;11.70;99.90;;;;;;912662;153;27391;-76
2022/12/23 07:18:45;;;;;;;0.93;0.93;;;11.70;99.90;;;;;;923057;152;27444;-76
2022/12/23 07:21:12;;;;;;;0.83;0.60;;;11.80;99.90;;;;;;921614;152;27383;-77
2022/12/23 07:23:38;;;;;;;0.67;0.67;;;11.90;99.90;;;;;;922063;152;27323;-77
2022/12/23 07:26:05;;;;;;;1.10;1.00;;;11.90;99.90;;;;;;921874;152;27379;-77
2022/12/23 07:28:32;;;;;;;1.60;1.30;;;12.00;99.90;;;;;;915352;155;27520;-76
2022/12/23 07:30:58;;;;;;;1.63;1.13;;;12.10;99.90;;;;;;931568;151;27303;-77
2022/12/23 07:33:25;;;;;;;1.43;1.33;;;12.20;99.90;;;;;;926895;151;27462;-77
2022/12/23 07:35:51;;;;;;;1.60;1.40;;;12.20;99.90;;;;;;925130;152;27387;-77
2022/12/23 07:38:18;;;;;;;1.43;1.10;;;12.30;99.90;;;;;;921116;152;28321;-77
2022/12/23 07:40:45;;;;;;;1.25;1.15;;;12.40;99.90;;;;;;922564;152;27470;-76
2022/12/23 07:43:11;;;;;;;1.20;1.20;;;12.40;99.90;;;;;;910041;154;28205;-78
2022/12/23 07:45:38;;;;;;;2.65;2.33;;;12.50;99.90;;;;;;910356;154;27373;-77
2022/12/23 07:48:04;;;;;;;3.77;3.47;;;12.50;99.90;;;;;;911156;154;27315;-77
2022/12/23 07:50:31;;;;;;;3.87;2.97;;;12.60;99.90;;;;;;910786;154;27416;-77
2022/12/23 07:52:58;;;;;;;3.33;2.90;;;12.60;99.90;;;;;;925536;152;27367;-77
2022/12/23 07:55:24;;;;;;;3.60;2.02;;;12.70;99.90;;;;;;925789;152;27462;-76
2022/12/23 07:57:51;;;;;;;3.50;2.80;;;12.80;99.90;;;;;;926530;152;27320;-76
2022/12/23 08:00:17;;;;;;;5.47;2.97;;;12.80;99.90;;;;;;925169;152;27379;-77
2022/12/23 08:02:44;;;;;;;6.37;2.23;;;12.90;99.90;;;;;;926376;152;27367;-76
2022/12/23 08:05:11;;;;;;;2.50;2.30;;;12.90;99.90;;;;;;926315;152;27331;-77
2022/12/23 08:07:37;;;;;;;2.33;1.50;;;13.00;99.90;;;;;;926201;152;27374;-76
2022/12/23 08:10:04;;;;;;;1.43;1.33;;;13.00;99.90;;;;;;925958;152;27521;-77
2022/12/23 08:12:30;;;;;;;1.10;1.00;;;13.10;99.90;;;;;;924756;152;27331;-76
2022/12/23 08:14:57;;;;;;;2.33;1.27;;;13.10;99.90;;;;;;910378;154;27347;-77
2022/12/23 08:17:26;;;;;;;0.95;0.85;;;13.20;99.90;;;;;;908752;154;27442;-77
2022/12/23 08:19:53;;;;;;;1.03;0.97;;;13.20;99.90;;;;;;909199;154;27829;-76
2022/12/23 08:22:19;;;;;;;1.27;1.17;;;13.20;99.90;;;;;;924623;152;27416;-77
2022/12/23 08:24:46;;;;;;;1.50;1.40;;;13.20;99.90;;;;;;910293;154;27892;-76
2022/12/23 08:27:13;;;;;;;1.57;1.40;;;13.30;99.90;;;;;;910813;154;27394;-77
2022/12/23 08:29:39;;;;;;;1.10;1.00;;;13.30;99.90;;;;;;911236;154;27367;-78
2022/12/23 08:32:06;;;;;;;0.72;0.72;;;13.30;99.90;;;;;;910066;154;27499;-77
2022/12/23 08:34:32;;;;;;;0.95;0.95;;;13.30;99.90;;;;;;929879;151;27415;-77
2022/12/23 08:36:59;;;;;;;1.10;1.00;;;13.30;99.90;;;;;;931201;151;27350;-77
2022/12/23 08:39:26;;;;;;;0.80;0.80;;;13.40;99.90;;;;;;917239;153;27404;-77
2022/12/23 08:41:52;;;;;;;0.80;0.80;;;13.40;99.90;;;;;;931918;151;27401;-77
2022/12/23 08:44:19;;;;;;;1.25;1.15;;;13.50;99.90;;;;;;931777;151;27374;-77
2022/12/23 08:46:45;;;;;;;1.42;1.35;;;13.50;99.90;;;;;;931702;151;27876;-77
2022/12/23 08:49:12;;;;;;;2.12;1.90;;;13.60;99.90;;;;;;931825;151;27351;-77
2022/12/23 08:51:39;;;;;;;2.30;1.67;;;13.60;99.90;;;;;;932750;151;27803;-77
2022/12/23 08:54:05;;;;;;;1.35;1.20;;;13.70;99.90;;;;;;917267;153;27291;-77
2022/12/23 08:56:32;;;;;;;2.10;1.60;;;13.70;99.90;;;;;;917697;153;27379;-77
2022/12/23 08:58:59;;;;;;;1.50;1.40;;;13.70;99.90;;;;;;915492;153;27331;-78
2022/12/23 09:01:25;;;;;;;3.27;1.55;;;13.70;99.90;;;;;;932310;151;27472;-77
2022/12/23 09:03:52;;;;;;;1.52;1.40;;;13.80;99.90;;;;;;932456;151;27331;-77
2022/12/23 09:06:21;;;;;;;1.47;1.37;;;13.80;99.90;;;;;;933704;151;27380;-77
2022/12/23 09:08:48;;;;;;;2.47;1.25;;;13.80;99.90;;;;;;916532;153;27348;-77
2022/12/23 09:11:14;;;;;;;1.40;1.30;;;13.80;99.90;;;;;;931891;151;27372;-78
2022/12/23 09:13:41;;;;;;;3.40;1.25;;;13.80;99.90;;;;;;931825;151;27370;-77
2022/12/23 09:16:07;;;;;;;2.27;2.08;;;13.90;99.90;;;;;;932434;151;27355;-77
2022/12/23 09:18:34;;;;;;;2.02;1.87;;;13.90;99.90;;;;;;914980;154;27409;-77
2022/12/23 09:21:01;;;;;;;2.62;1.30;;;13.90;99.90;;;;;;914586;154;27332;-78
2022/12/23 09:23:27;;;;;;;2.33;1.30;;;13.90;99.90;;;;;;914867;154;27462;-78
2022/12/23 09:25:54;;;;;;;2.00;1.60;;;14.00;99.90;;;;;;914436;154;27393;-77
2022/12/23 09:28:20;;;;;;;1.45;1.35;;;14.00;99.90;;;;;;915962;154;27348;-77
2022/12/23 09:30:47;;;;;;;1.17;1.17;;;14.00;99.90;;;;;;916390;154;27367;-78
2022/12/23 09:33:13;;;;;;;1.50;1.40;;;14.00;99.90;;;;;;915528;154;27506;-78
2022/12/23 09:35:40;;;;;;;1.70;1.60;;;14.10;99.90;;;;;;910560;154;27321;-78
2022/12/23 09:38:07;;;;;;;2.27;1.32;;;14.10;99.90;;;;;;909634;154;27376;-79
2022/12/23 09:40:33;;;;;;;1.50;1.40;;;14.10;99.90;;;;;;910555;154;27370;-77
2022/12/23 09:43:03;;;;;;;1.77;1.40;;;14.10;99.90;;;;;;910109;154;28221;-78
2022/12/23 09:46:00;;;;;;;1.32;1.22;;;14.20;99.90;;;;;;909503;154;27477;-77
2022/12/23 09:48:27;;;;;;;1.60;1.50;;;14.20;99.90;;;;;;917414;154;27369;-77
2022/12/23 09:50:53;;;;;;;2.25;1.60;;;14.30;99.90;;;;;;929426;151;27348;-77
2022/12/23 09:53:22;;;;;;;1.92;1.82;;;14.40;99.90;;;;;;913569;154;27409;-78
2022/12/23 09:56:08;;;;;;;2.35;2.15;;;14.40;99.90;;;;;;928743;151;28485;-77
2022/12/23 09:58:46;;;;;;;3.95;2.30;;;14.40;99.90;;;;;;928479;151;28329;-78
2022/12/23 10:01:13;;;;;;;2.27;1.70;;;14.50;99.90;;;;;;910104;156;27370;-77
2022/12/23 10:04:13;;;;;;;1.30;1.20;;;14.60;99.90;;;;;;928176;151;27313;-78
2022/12/23 10:06:40;;;;;;;1.80;1.70;;;14.60;99.90;;;;;;912166;154;27328;-78
2022/12/23 10:09:07;;;;;;;1.55;1.30;;;14.70;99.90;;;;;;912726;154;27520;-78
2022/12/23 10:11:39;;;;;;;5.97;4.72;;;14.70;99.90;;;;;;928562;151;27343;-78
2022/12/23 10:14:27;;;;;;;3.00;2.55;;;14.80;99.90;;;;;;928663;151;27366;-78
2022/12/23 10:16:53;;;;;;;2.47;2.00;;;14.80;99.90;;;;;;914401;155;28357;-78
2022/12/23 10:19:20;;;;;;;1.60;1.50;;;14.80;99.90;;;;;;921257;152;27313;-78
2022/12/23 10:21:49;;;;;;;0.80;0.80;;;14.80;99.90;;;;;;921791;152;27876;-78
2022/12/23 10:24:16;;;;;;;1.65;0.95;;;14.90;99.90;;;;;;922159;152;27317;-80
2022/12/23 10:26:42;;;;;;;0.80;0.80;;;14.90;99.90;;;;;;919930;152;27389;-78
2022/12/23 10:29:17;;;;;;;1.30;0.90;;;15.00;99.90;;;;;;912959;154;27417;-79
2022/12/23 10:31:53;;;;;;;1.07;0.98;;;14.90;99.90;;;;;;913996;154;27414;-78
2022/12/23 10:34:19;;;;;;;4.62;2.37;;;15.00;99.90;;;;;;911431;153;27343;-79
2022/12/23 10:36:48;;;;;;;13.13;6.20;;;15.00;99.90;;;;;;912903;153;27420;-78
2022/12/23 10:39:24;;;;;;;8.95;4.42;;;15.00;99.90;;;;;;919230;154;27347;-78
2022/12/23 10:42:02;;;;;;;3.52;2.50;;;14.90;99.90;;;;;;914476;154;27302;-77
2022/12/23 10:44:29;;;;;;;2.17;1.62;;;15.00;99.90;;;;;;914916;154;27492;-78
2022/12/23 10:47:01;;;;;;;1.40;1.30;;;15.00;99.90;;;;;;913862;154;27361;-77
2022/12/23 10:49:49;;;;;;;1.42;1.30;;;15.00;99.90;;;;;;912946;154;27324;-78
2022/12/23 10:52:18;;;;;;;1.47;1.37;;;15.00;99.90;;;;;;914334;154;27333;-77
2022/12/23 10:54:45;;;;;;;1.60;1.45;;;15.00;99.90;;;;;;914991;154;27328;-78
2022/12/23 10:57:11;;;;;;;1.72;1.62;;;14.90;99.90;;;;;;914919;154;27477;-76
2022/12/23 10:59:38;;;;;;;1.98;1.80;;;15.00;99.90;;;;;;911955;152;27386;-77
2022/12/23 11:02:13;;;;;;;1.17;1.10;;;15.00;99.90;;;;;;917105;153;27314;-78
2022/12/23 11:04:40;;;;;;;1.20;1.20;;;14.90;99.90;;;;;;932412;151;27322;-77
2022/12/23 11:07:06;;;;;;;1.42;1.10;;;14.90;99.90;;;;;;933519;151;27365;-78
2022/12/23 11:09:35;;;;;;;1.00;1.00;;;14.90;99.90;;;;;;932790;151;27468;-78
2022/12/23 11:12:02;;;;;;;0.80;0.80;;;14.90;99.90;;;;;;914987;153;27465;-77
2022/12/23 11:14:41;;;;;;;1.20;0.70;;;14.90;99.90;;;;;;932635;151;27316;-78
2022/12/23 11:17:26;;;;;;;0.65;0.65;;;14.90;99.90;;;;;;932156;151;27334;-76
2022/12/23 11:20:10;;;;;;;1.42;0.70;;;14.90;99.90;;;;;;921825;152;27310;-78
2022/12/23 11:22:49;;;;;;;0.70;0.70;;;14.80;99.90;;;;;;921587;152;27399;-78
2022/12/23 11:25:27;;;;;;;0.80;0.80;;;14.70;99.90;;;;;;921879;152;27375;-78
2022/12/23 11:27:57;;;;;;;0.82;0.40;;;14.60;99.90;;;;;;920802;152;27311;-77
2022/12/23 11:30:23;;;;;;;0.55;0.55;;;14.60;99.90;;;;;;922296;152;27279;-78
2022/12/23 11:32:50;;;;;;;0.72;0.72;;;14.60;99.90;;;;;;920868;152;27909;-77
2022/12/23 11:35:16;;;;;;;1.77;0.75;;;14.60;99.90;;;;;;921618;151;27427;-77
2022/12/23 11:37:43;;;;;;;0.90;0.80;;;14.50;99.90;;;;;;924015;151;27394;-77
2022/12/23 11:40:28;;;;;;;1.07;1.07;;;14.50;99.90;;;;;;926183;151;27395;-77
2022/12/23 11:42:57;;;;;;;1.57;1.47;;;14.50;99.90;;;;;;925883;151;27755;-77
2022/12/23 11:45:23;;;;;;;1.80;1.70;;;14.50;99.90;;;;;;925727;151;27409;-77
2022/12/23 11:47:50;;;;;;;2.30;2.10;;;14.40;99.90;;;;;;926265;151;27485;-77
2022/12/23 11:50:26;;;;;;;2.75;2.55;;;14.50;99.90;;;;;;925326;151;27313;-77
2022/12/23 11:52:52;;;;;;;2.98;2.52;;;14.40;99.90;;;;;;925942;151;27403;-77
2022/12/23 11:55:25;;;;;;;3.37;3.15;;;14.40;99.90;;;;;;926818;151;27344;-78
2022/12/23 11:57:51;;;;;;;3.52;3.22;;;14.40;99.90;;;;;;926151;151;27359;-78
2022/12/23 12:00:19;;;;;;;3.62;3.33;;;14.40;99.90;;;;;;926393;151;27388;-77
2022/12/23 12:02:45;;;;;;;3.92;3.58;;;14.30;99.90;;;;;;925980;151;27379;-78
2022/12/23 12:05:21;;;;;;;5.65;3.80;;;14.30;99.90;;;;;;927959;151;27721;-78
2022/12/23 12:07:47;;;;;;;3.77;3.47;;;14.30;99.90;;;;;;927477;151;27325;-78
2022/12/23 12:10:19;;;;;;;4.08;3.47;;;14.30;99.90;;;;;;927949;151;27479;-78
2022/12/23 12:12:46;;;;;;;3.77;3.47;;;14.30;99.90;;;;;;922465;151;27531;-76
2022/12/23 12:15:27;;;;;;;3.55;3.25;;;14.30;99.90;;;;;;926653;151;28086;-77
2022/12/23 12:17:53;;;;;;;3.98;3.10;;;14.30;99.90;;;;;;903496;152;27515;-77
2022/12/23 12:20:26;;;;;;;3.58;3.27;;;14.30;99.90;;;;;;927141;151;27367;-78
2022/12/23 12:23:10;;;;;;;3.58;3.22;;;14.20;99.90;;;;;;925183;151;27387;-78
2022/12/23 12:25:40;;;;;;;3.47;3.17;;;14.20;99.90;;;;;;925239;151;28643;-78
2022/12/23 12:28:22;;;;;;;4.45;2.80;;;14.30;99.90;;;;;;924710;151;27405;-77
2022/12/23 12:31:00;;;;;;;2.50;2.30;;;14.20;99.90;;;;;;926053;151;27357;-78
2022/12/23 12:33:29;;;;;;;2.40;2.20;;;14.20;99.90;;;;;;924842;151;27387;-78
2022/12/23 12:36:14;;;;;;;2.20;2.00;;;14.20;99.90;;;;;;923392;151;27418;-77
2022/12/23 12:38:41;;;;;;;3.37;2.00;;;14.20;99.90;;;;;;912256;154;27814;-77
2022/12/23 12:41:13;;;;;;;1.87;1.47;;;14.20;99.90;;;;;;928191;151;27337;-77
2022/12/23 12:43:40;;;;;;;1.80;1.70;;;14.10;99.90;;;;;;928432;151;27290;-78
2022/12/23 12:46:28;;;;;;;1.60;1.50;;;14.20;99.90;;;;;;909215;154;27348;-78
2022/12/23 12:49:00;;;;;;;2.20;2.10;;;14.10;99.90;;;;;;909523;154;27429;-78
2022/12/23 12:51:41;;;;;;;2.62;2.05;;;14.10;99.90;;;;;;908389;154;27465;-78
2022/12/23 12:54:29;;;;;;;2.90;2.42;;;14.10;99.90;;;;;;910067;154;27665;-78
2022/12/23 12:56:56;;;;;;;2.52;2.30;;;14.10;99.90;;;;;;910351;154;27399;-78
2022/12/23 12:59:25;;;;;;;2.60;2.40;;;14.10;99.90;;;;;;909756;154;27429;-77
2022/12/23 13:01:52;;;;;;;2.67;2.40;;;14.10;99.90;;;;;;910022;154;27342;-78
2022/12/23 13:04:27;;;;;;;3.42;3.10;;;14.10;99.90;;;;;;909929;154;27460;-78
2022/12/23 13:07:09;;;;;;;2.95;2.65;;;14.10;99.90;;;;;;908651;154;27413;-77
2022/12/23 13:09:41;;;;;;;2.77;2.58;;;14.10;99.90;;;;;;909390;154;27441;-78
2022/12/23 13:12:20;;;;;;;2.87;2.55;;;14.10;99.90;;;;;;909381;155;27504;-77
2022/12/23 13:14:55;;;;;;;3.37;2.90;;;14.00;99.90;;;;;;927975;151;27474;-78
2022/12/23 13:17:24;;;;;;;2.75;2.55;;;14.00;99.90;;;;;;928218;151;27378;-77
2022/12/23 13:20:03;;;;;;;3.08;2.50;;;14.00;99.90;;;;;;927959;151;27492;-78
2022/12/23 13:22:32;;;;;;;3.08;2.77;;;13.90;99.90;;;;;;927341;151;27438;-77
2022/12/23 13:24:59;;;;;;;4.15;2.85;;;13.90;99.90;;;;;;929681;151;27372;-77
2022/12/23 13:27:44;;;;;;;4.30;3.90;;;13.90;99.90;;;;;;927959;151;27687;-77
2022/12/23 13:30:16;;;;;;;3.13;2.63;;;13.90;99.90;;;;;;926571;151;27346;-77